Aérodrome :
LOGIN :

S'inscrire | Disclaimer

   EN    FR    IT 

 










Légende :    VFR   VFR Marginal   IFR   IFR Intensif   IFR Très Intensif
Visi : 
Plafond : 
>= 8 km
>= 3000ft
5 à 8 km
1000 à 3000 ft
1500m à 5 km
500 à 1000 ft
800 à 1500m
200 à 500 ft
< 800m
< 200 ft
Symboles :   Orages  Brouillard  Fortes neiges  Fortes précipitations  Vent > 20 kt
SIGMETs :   Divers  Orages  Givrage  Turbulence  Onde Orograph.  Cendres Volcan.







- Altitude de l'aérodrome : 433 ft
- Voir les cartes d'approche


LFOC - Chateaudun

DERNIER METAR :
  • 211000Z AUTO 28004KT 210V320 9999 FEW030 23/12 Q1023 NOSIG

METARs EXPIRÉS :
  • 210930Z AUTO 28004KT 230V320 CAVOK 22/12 Q1023 NOSIG
  • 210900Z AUTO 24006KT 190V270 9999 SCT029 SCT056 22/12 Q1023 NOSIG
  • 210830Z AUTO 24005KT 190V280 9999 BKN031 OVC058 21/12 Q1023 NOSIG
  • 210800Z AUTO 22005KT 9999 FEW036 OVC060 20/12 Q1023 NOSIG
  • 210730Z AUTO 22004KT 9999 FEW039 BKN049 OVC062 19/12 Q1023 NOSIG

TAF TAF LFOC
Valide du 21 à 09h jusqu'au 22 à 09h UTC


210800Z 2109/2209 22007KT 9999 FEW030 BKN060
BECMG 2207/2209 12010KT
Pas de NOTAMs connus pour ce terrain.



MET'MAP, la Météo Aéronautique d'un coup d'oeil ! - Copyright ORBIFLY Décembre 2007 - Disclaimer

ORBIFLY MET'MAP TEAM :

Programmation & Développement : Alexandra Zaïnal
Conception & Développement : Baudouin d'Aumeries
Co-Programmation & Développement : Marc-Olivier Méhu
Soutien technique & logistique : Manuel Goepfert

Contact : metmap@orbifly.com




SOURCES & CREDITS :

   NOAA